Time;durP1;ratioP1;P1;durP2;ratioP2;P2;SDS_P1;SDS_P2;PMS_P1;PMS_P2;Temp;Humidity;BMP_temperature;BMP_pressure;BME280_temperature;BME280_humidity;BME280_pressure;Samples;Min_cycle;Max_cycle;Signal;HPM_P1;HPM_P2
2023/05/27 04:06:20;;;;;;;2.60;1.60;;;12.60;99.90;;;;;;5030530;23;20487;-66
2023/05/27 04:08:46;;;;;;;1.40;1.30;;;12.60;99.90;;;;;;4996698;28;20409;-65
2023/05/27 04:11:12;;;;;;;2.60;1.90;;;12.60;99.90;;;;;;4996928;28;20197;-65
2023/05/27 04:13:39;;;;;;;2.23;2.13;;;12.60;99.90;;;;;;4996275;28;20247;-66
2023/05/27 04:16:05;;;;;;;1.70;1.60;;;12.60;99.90;;;;;;4978562;28;20430;-65
2023/05/27 04:18:30;;;;;;;2.50;1.63;;;12.60;99.90;;;;;;4977280;28;20575;-65
2023/05/27 04:20:58;;;;;;;2.20;1.50;;;12.70;99.90;;;;;;4977092;28;20533;-65
2023/05/27 04:23:24;;;;;;;1.23;1.17;;;12.70;99.90;;;;;;4959358;28;20434;-66
2023/05/27 04:25:51;;;;;;;3.40;1.60;;;12.80;99.90;;;;;;4976988;28;21044;-66
2023/05/27 04:28:16;;;;;;;1.47;1.37;;;12.80;99.90;;;;;;4959620;28;20189;-65
2023/05/27 04:30:42;;;;;;;2.63;1.50;;;12.90;99.90;;;;;;4976773;28;20410;-65
2023/05/27 04:33:09;;;;;;;2.43;2.00;;;13.10;99.90;;;;;;4976407;28;20245;-65
2023/05/27 04:35:34;;;;;;;1.20;1.10;;;13.30;99.90;;;;;;4975745;28;20613;-65
2023/05/27 04:38:01;;;;;;;1.50;1.43;;;13.50;99.90;;;;;;4976691;28;20504;-65
2023/05/27 04:40:28;;;;;;;2.30;2.03;;;13.70;99.90;;;;;;4959255;28;20187;-65
2023/05/27 04:42:54;;;;;;;2.40;1.70;;;14.00;99.90;;;;;;4976710;28;20420;-65
2023/05/27 04:45:20;;;;;;;1.47;1.37;;;14.10;99.90;;;;;;4976159;28;20453;-65
2023/05/27 04:47:46;;;;;;;1.60;1.50;;;14.30;99.90;;;;;;4976688;28;20518;-64
2023/05/27 04:50:13;;;;;;;4.83;1.83;;;14.50;99.80;;;;;;4976475;28;20180;-65
2023/05/27 04:52:40;;;;;;;2.93;1.73;;;14.50;99.20;;;;;;4976479;28;20686;-65
2023/05/27 04:55:08;;;;;;;2.67;1.50;;;14.50;99.20;;;;;;4959207;28;20424;-65
2023/05/27 04:57:35;;;;;;;1.33;1.33;;;14.50;99.40;;;;;;4976348;28;20925;-65
2023/05/27 05:02:39;;;;;;;1.90;1.70;;;14.60;99.30;;;;;;4976439;28;20443;-65
2023/05/27 05:05:08;;;;;;;2.17;1.10;;;14.60;99.20;;;;;;4975978;28;20418;-65
2023/05/27 05:07:37;;;;;;;2.97;1.83;;;14.70;99.00;;;;;;4976366;28;20458;-65
2023/05/27 05:10:04;;;;;;;1.83;1.73;;;14.80;99.00;;;;;;4976463;28;20379;-64
2023/05/27 05:12:29;;;;;;;2.20;2.00;;;14.90;98.70;;;;;;4976166;28;20526;-65
2023/05/27 05:14:56;;;;;;;2.00;1.77;;;15.00;98.60;;;;;;4975471;28;20589;-65
2023/05/27 05:17:24;;;;;;;2.40;1.47;;;15.00;98.80;;;;;;4976184;28;20271;-65
2023/05/27 05:19:50;;;;;;;6.20;1.33;;;15.10;98.60;;;;;;4976261;28;20426;-65
2023/05/27 05:22:18;;;;;;;2.73;2.10;;;15.10;98.40;;;;;;4976103;28;20408;-65
2023/05/27 05:24:45;;;;;;;2.70;1.60;;;15.10;98.20;;;;;;4975475;28;20467;-65
2023/05/27 05:27:11;;;;;;;2.10;1.40;;;15.20;98.20;;;;;;4975439;28;20448;-65
2023/05/27 05:29:37;;;;;;;1.63;1.53;;;15.20;98.10;;;;;;4975594;28;20879;-65
2023/05/27 05:32:03;;;;;;;2.67;2.03;;;15.30;98.20;;;;;;4975680;28;20227;-65
2023/05/27 05:34:29;;;;;;;2.37;1.90;;;15.30;98.20;;;;;;4975254;28;20415;-65
2023/05/27 05:36:55;;;;;;;2.83;1.70;;;15.50;98.20;;;;;;4975668;28;20416;-65
2023/05/27 05:39:20;;;;;;;1.20;1.10;;;15.60;97.80;;;;;;4958345;28;20432;-65
2023/05/27 05:41:46;;;;;;;2.57;2.00;;;15.70;97.80;;;;;;4975690;28;20185;-65
2023/05/27 05:44:12;;;;;;;4.40;1.90;;;15.80;97.70;;;;;;4975134;28;20221;-65
2023/05/27 05:46:38;;;;;;;1.70;1.60;;;15.90;97.60;;;;;;4975339;28;20414;-65
2023/05/27 05:49:04;;;;;;;1.73;1.50;;;15.90;97.10;;;;;;4975271;28;20175;-64
2023/05/27 05:51:30;;;;;;;2.23;1.13;;;16.00;97.10;;;;;;4975348;28;20290;-64
2023/05/27 05:53:57;;;;;;;1.47;1.37;;;16.20;96.70;;;;;;4974843;28;20473;-64
2023/05/27 05:56:22;;;;;;;3.90;2.00;;;16.40;96.40;;;;;;4975360;28;20411;-65
2023/05/27 05:58:48;;;;;;;1.60;1.50;;;16.60;96.40;;;;;;4957935;28;20931;-65
2023/05/27 06:01:13;;;;;;;1.60;1.50;;;16.80;95.80;;;;;;4975107;28;20172;-65
2023/05/27 06:03:39;;;;;;;2.90;1.57;;;17.00;95.40;;;;;;4974792;28;20652;-66
2023/05/27 06:06:05;;;;;;;3.60;1.50;;;17.10;95.20;;;;;;4974925;28;20313;-66
2023/05/27 06:08:31;;;;;;;2.77;1.73;;;17.10;94.50;;;;;;4975078;28;20204;-65
2023/05/27 06:10:56;;;;;;;1.90;1.80;;;17.20;94.70;;;;;;4974966;28;20180;-65
2023/05/27 06:13:22;;;;;;;1.87;1.50;;;17.20;94.60;;;;;;4974671;28;20206;-65
2023/05/27 06:15:47;;;;;;;1.63;1.53;;;17.20;94.80;;;;;;4975000;28;20685;-65
2023/05/27 06:18:13;;;;;;;3.10;1.93;;;17.20;94.00;;;;;;4974550;28;20679;-65
2023/05/27 06:20:39;;;;;;;11.13;2.20;;;17.20;94.30;;;;;;4975005;28;20188;-65
2023/05/27 06:23:06;;;;;;;1.83;1.73;;;17.10;93.90;;;;;;4956728;28;20394;-66
2023/05/27 06:25:32;;;;;;;2.40;2.20;;;17.20;94.10;;;;;;4974311;28;20414;-62
2023/05/27 06:27:58;;;;;;;4.30;2.03;;;17.30;94.80;;;;;;4974927;28;20385;-63
2023/05/27 06:30:24;;;;;;;2.00;1.70;;;17.30;94.70;;;;;;4974885;28;20926;-63
2023/05/27 06:32:50;;;;;;;1.87;1.73;;;17.40;94.60;;;;;;4974594;28;20518;-65
2023/05/27 06:35:15;;;;;;;1.67;1.50;;;17.50;94.60;;;;;;4974425;28;20941;-64
2023/05/27 06:37:41;;;;;;;4.50;1.70;;;17.60;94.70;;;;;;4974682;28;20180;-64
2023/05/27 06:40:07;;;;;;;1.93;1.70;;;17.80;94.60;;;;;;4974666;28;20506;-64
2023/05/27 06:42:33;;;;;;;1.93;1.50;;;18.00;93.90;;;;;;4974472;28;20224;-64
2023/05/27 06:44:58;;;;;;;1.53;1.43;;;18.00;94.00;;;;;;4956653;28;20945;-65
2023/05/27 06:47:24;;;;;;;3.70;1.63;;;18.00;93.80;;;;;;4974584;28;20172;-63
2023/05/27 06:49:50;;;;;;;2.03;1.83;;;18.10;94.20;;;;;;4974366;28;20230;-65
2023/05/27 06:52:15;;;;;;;2.73;2.37;;;18.20;93.80;;;;;;4974219;28;20212;-65
2023/05/27 06:54:41;;;;;;;1.80;1.40;;;18.30;93.20;;;;;;4973607;28;20192;-64
2023/05/27 06:57:07;;;;;;;2.10;1.47;;;18.40;92.70;;;;;;4973957;28;20188;-65
2023/05/27 06:59:32;;;;;;;1.73;1.63;;;18.40;92.60;;;;;;4974270;28;20523;-65
2023/05/27 07:01:58;;;;;;;1.60;1.50;;;18.50;92.40;;;;;;4974423;28;20212;-65
2023/05/27 07:04:24;;;;;;;1.47;1.37;;;18.60;92.30;;;;;;4974084;28;20563;-64
2023/05/27 07:06:50;;;;;;;3.43;2.17;;;18.80;92.90;;;;;;4974277;28;20439;-65
2023/05/27 07:09:16;;;;;;;1.60;1.50;;;18.80;92.00;;;;;;4974107;28;20258;-65
2023/05/27 07:11:42;;;;;;;1.70;1.60;;;18.90;92.80;;;;;;4973729;28;20207;-63
2023/05/27 07:14:09;;;;;;;1.90;1.40;;;18.90;92.30;;;;;;4973849;28;20694;-64
2023/05/27 07:16:34;;;;;;;1.53;1.43;;;19.00;91.90;;;;;;4974422;28;20409;-65
2023/05/27 07:19:00;;;;;;;2.20;2.10;;;19.10;91.80;;;;;;4974568;28;20816;-64
2023/05/27 07:21:26;;;;;;;1.57;1.17;;;19.30;93.00;;;;;;4974443;28;20677;-64
2023/05/27 07:23:51;;;;;;;2.70;2.43;;;19.50;92.70;;;;;;4958136;28;20204;-64
2023/05/27 07:26:17;;;;;;;1.60;1.20;;;19.80;92.20;;;;;;4978147;28;20180;-64
2023/05/27 07:28:43;;;;;;;2.50;2.30;;;20.40;91.00;;;;;;4981286;28;20168;-64
2023/05/27 07:31:27;;;;;;;1.80;1.30;;;21.00;90.70;;;;;;4956268;29;20192;-65
2023/05/27 07:33:53;;;;;;;1.60;1.50;;;22.00;88.90;;;;;;4957465;29;20413;-65
2023/05/27 07:36:19;;;;;;;1.57;1.47;;;22.90;86.40;;;;;;4957662;29;20439;-64
2023/05/27 07:38:44;;;;;;;3.70;1.97;;;24.00;84.40;;;;;;4958174;29;20180;-66
2023/05/27 07:41:11;;;;;;;1.93;1.63;;;24.90;80.50;;;;;;4958043;29;20260;-66
2023/05/27 07:43:36;;;;;;;2.50;2.17;;;26.00;78.30;;;;;;4957003;29;20177;-65
2023/05/27 07:46:02;;;;;;;2.00;1.80;;;26.70;74.80;;;;;;4957959;29;20437;-66
2023/05/27 07:48:28;;;;;;;2.87;2.47;;;27.30;73.90;;;;;;4957923;29;20184;-66
2023/05/27 07:50:54;;;;;;;1.97;1.87;;;28.20;70.50;;;;;;4958331;29;20695;-65
2023/05/27 07:53:20;;;;;;;2.20;1.70;;;29.00;67.60;;;;;;4957613;29;20977;-65
2023/05/27 07:55:46;;;;;;;2.33;2.13;;;29.40;66.20;;;;;;4957756;29;20410;-66
2023/05/27 07:58:11;;;;;;;2.43;2.23;;;29.60;65.20;;;;;;4958261;29;20267;-67
2023/05/27 08:00:37;;;;;;;2.33;2.13;;;29.90;63.00;;;;;;4957925;29;20180;-64
2023/05/27 08:03:03;;;;;;;2.80;2.27;;;30.30;62.70;;;;;;4957857;29;20209;-66
2023/05/27 08:05:28;;;;;;;2.90;2.30;;;30.50;60.70;;;;;;4957820;29;20671;-63
2023/05/27 08:07:54;;;;;;;3.50;3.30;;;30.30;60.50;;;;;;4958065;29;20180;-66
2023/05/27 08:10:20;;;;;;;4.20;2.40;;;30.60;61.30;;;;;;4957656;29;20177;-65
2023/05/27 08:12:45;;;;;;;2.20;2.00;;;31.10;62.40;;;;;;4957657;29;20296;-66
2023/05/27 08:15:11;;;;;;;2.20;2.07;;;31.60;61.00;;;;;;4957354;29;20527;-65
2023/05/27 08:17:37;;;;;;;2.97;2.67;;;31.80;58.70;;;;;;4957749;29;20177;-65
2023/05/27 08:20:04;;;;;;;2.40;2.20;;;32.40;57.50;;;;;;4957780;29;20285;-66
2023/05/27 08:22:29;;;;;;;2.90;2.60;;;32.70;57.10;;;;;;4957502;29;20718;-65
2023/05/27 08:24:55;;;;;;;3.10;2.80;;;32.80;56.70;;;;;;4957291;29;20415;-63
2023/05/27 08:27:40;;;;;;;2.90;2.70;;;32.90;56.60;;;;;;4957585;29;20195;-65
2023/05/27 08:30:08;;;;;;;2.40;2.20;;;33.00;55.10;;;;;;4986585;28;20210;-65
2023/05/27 08:32:33;;;;;;;2.47;2.00;;;32.90;55.80;;;;;;4978657;28;20544;-65
2023/05/27 08:34:59;;;;;;;3.90;2.60;;;33.00;55.70;;;;;;4995281;28;20438;-66
2023/05/27 08:37:25;;;;;;;5.37;3.00;;;33.10;55.10;;;;;;4995925;28;20630;-66
2023/05/27 08:39:51;;;;;;;2.47;2.30;;;32.90;54.50;;;;;;4996230;28;20518;-64
2023/05/27 08:42:16;;;;;;;3.53;2.93;;;32.60;55.10;;;;;;4996163;28;20184;-64
2023/05/27 08:44:42;;;;;;;2.47;2.30;;;32.60;55.00;;;;;;4993641;28;20681;-63
2023/05/27 08:47:08;;;;;;;2.20;2.00;;;32.30;55.10;;;;;;4995619;28;20187;-64
2023/05/27 08:49:33;;;;;;;3.03;2.77;;;32.30;55.20;;;;;;4995771;28;20645;-64
2023/05/27 08:52:01;;;;;;;2.37;2.20;;;32.10;55.10;;;;;;4995631;28;20337;-64
2023/05/27 08:54:29;;;;;;;4.03;2.73;;;31.90;55.00;;;;;;4995370;28;20298;-66
2023/05/27 08:56:57;;;;;;;4.33;3.93;;;31.80;55.40;;;;;;4988313;28;20478;-67
2023/05/27 08:59:24;;;;;;;2.67;2.40;;;31.60;55.60;;;;;;4975349;28;20419;-65
2023/05/27 09:01:51;;;;;;;2.50;2.30;;;31.60;55.40;;;;;;4974860;28;20427;-64
2023/05/27 09:04:17;;;;;;;2.83;2.33;;;31.80;55.90;;;;;;4973894;28;20450;-65
2023/05/27 09:06:42;;;;;;;2.80;2.63;;;32.20;55.90;;;;;;4958296;28;21023;-64
2023/05/27 09:09:11;;;;;;;2.97;2.23;;;32.40;55.00;;;;;;4975717;28;20279;-66
2023/05/27 09:11:40;;;;;;;2.30;2.10;;;31.90;54.70;;;;;;4980213;28;20658;-65
2023/05/27 09:14:05;;;;;;;2.40;2.20;;;31.70;55.40;;;;;;4975264;28;20427;-64
2023/05/27 09:16:31;;;;;;;3.00;2.80;;;31.80;55.20;;;;;;4975759;28;20786;-65
2023/05/27 09:18:57;;;;;;;2.97;2.67;;;31.70;55.60;;;;;;4975531;28;20183;-65
2023/05/27 09:21:26;;;;;;;3.50;3.20;;;31.80;55.80;;;;;;4958241;28;20187;-66
2023/05/27 09:23:56;;;;;;;4.00;2.40;;;32.10;55.60;;;;;;4980204;28;20427;-66
2023/05/27 09:26:23;;;;;;;2.63;2.43;;;32.20;55.60;;;;;;4977138;28;20438;-65
2023/05/27 09:28:48;;;;;;;2.40;2.23;;;32.40;54.60;;;;;;4983744;28;20477;-66
2023/05/27 09:31:14;;;;;;;2.87;2.67;;;32.80;54.40;;;;;;4977884;28;20410;-66
2023/05/27 09:33:40;;;;;;;3.00;2.80;;;33.30;53.90;;;;;;4974588;28;20303;-66
2023/05/27 09:36:08;;;;;;;2.90;2.70;;;33.60;53.30;;;;;;4975168;28;20227;-65
2023/05/27 09:38:35;;;;;;;3.17;2.97;;;33.90;53.20;;;;;;4975535;28;20263;-66
2023/05/27 09:41:01;;;;;;;2.70;2.50;;;34.10;52.80;;;;;;4975486;28;20474;-66
2023/05/27 09:43:28;;;;;;;2.80;2.70;;;33.90;52.90;;;;;;4980139;28;20398;-66
2023/05/27 09:46:02;;;;;;;2.93;2.73;;;33.80;52.90;;;;;;4974646;28;21032;-66
2023/05/27 09:48:31;;;;;;;3.07;2.87;;;34.00;52.80;;;;;;4975111;28;20471;-67
2023/05/27 09:50:59;;;;;;;2.80;2.60;;;34.30;52.80;;;;;;4974057;28;20442;-66
2023/05/27 09:53:26;;;;;;;3.33;3.13;;;34.40;52.80;;;;;;4981795;28;20545;-66
2023/05/27 09:55:56;;;;;;;3.10;2.90;;;34.40;52.40;;;;;;4980902;28;20459;-66
2023/05/27 09:58:23;;;;;;;3.60;3.30;;;34.00;52.20;;;;;;4975069;28;20523;-66
2023/05/27 10:00:50;;;;;;;3.53;3.23;;;33.80;52.40;;;;;;4975135;28;20431;-66
2023/05/27 10:03:17;;;;;;;3.17;2.87;;;33.60;52.40;;;;;;4973885;28;20446;-66
2023/05/27 10:05:48;;;;;;;3.20;3.00;;;33.20;53.20;;;;;;4974372;28;20463;-66
2023/05/27 10:08:14;;;;;;;3.40;3.20;;;33.30;53.50;;;;;;4960807;28;20435;-66
2023/05/27 10:10:40;;;;;;;3.50;2.83;;;33.60;52.80;;;;;;4973234;28;20428;-65
2023/05/27 10:13:06;;;;;;;2.90;2.70;;;33.50;52.40;;;;;;4973929;28;20555;-65
2023/05/27 10:15:33;;;;;;;3.13;2.93;;;33.30;52.20;;;;;;4957772;28;20443;-63
2023/05/27 10:18:07;;;;;;;3.43;3.23;;;33.00;53.00;;;;;;4975167;28;20498;-62
2023/05/27 10:20:34;;;;;;;3.53;3.20;;;32.20;52.70;;;;;;4975190;28;20462;-63
2023/05/27 10:23:15;;;;;;;2.77;2.57;;;31.80;53.10;;;;;;4974722;28;20982;-67
2023/05/27 10:25:47;;;;;;;3.47;3.10;;;31.20;53.80;;;;;;4991865;28;20454;-64
2023/05/27 10:28:27;;;;;;;3.10;2.80;;;30.60;54.30;;;;;;4987365;28;20709;-63
2023/05/27 10:30:52;;;;;;;2.53;2.33;;;30.40;55.20;;;;;;4974484;28;20394;-65
2023/05/27 10:33:32;;;;;;;3.23;2.93;;;30.20;56.00;;;;;;4974074;28;20499;-65
2023/05/27 10:36:07;;;;;;;3.50;3.10;;;30.10;55.20;;;;;;4974775;28;20271;-65
2023/05/27 10:38:33;;;;;;;3.37;3.07;;;30.20;56.00;;;;;;4974925;28;20416;-64
2023/05/27 10:41:00;;;;;;;5.33;3.00;;;30.40;55.30;;;;;;4974845;28;20382;-64
2023/05/27 10:43:28;;;;;;;3.80;3.50;;;30.30;55.40;;;;;;4974725;28;20184;-63
2023/05/27 10:46:13;;;;;;;2.93;2.53;;;30.30;55.60;;;;;;4974707;28;20418;-63
2023/05/27 10:48:42;;;;;;;2.60;2.40;;;30.10;55.20;;;;;;4974412;28;20419;-63
2023/05/27 10:51:08;;;;;;;3.00;2.80;;;29.90;54.80;;;;;;4974434;28;20475;-65
2023/05/27 10:53:36;;;;;;;3.20;3.00;;;29.80;55.30;;;;;;4974202;28;20474;-65
2023/05/27 10:56:01;;;;;;;2.73;2.53;;;29.70;54.80;;;;;;4974486;28;20428;-65
2023/05/27 10:58:28;;;;;;;3.33;3.03;;;29.50;55.30;;;;;;4976526;28;20405;-64
2023/05/27 11:00:55;;;;;;;2.60;2.40;;;29.20;55.50;;;;;;4978602;28;20677;-65
2023/05/27 11:03:27;;;;;;;2.80;2.53;;;29.00;55.60;;;;;;4978144;28;20405;-65
2023/05/27 11:06:03;;;;;;;5.70;2.93;;;29.10;56.70;;;;;;4977925;28;20824;-65
2023/05/27 11:08:29;;;;;;;5.60;2.43;;;29.10;55.80;;;;;;4978494;28;20394;-66
2023/05/27 11:11:10;;;;;;;3.40;2.53;;;28.80;55.60;;;;;;4978146;28;20514;-66
2023/05/27 11:13:36;;;;;;;3.77;2.63;;;27.90;57.10;;;;;;4977142;28;20437;-66
2023/05/27 11:16:03;;;;;;;3.50;2.60;;;27.10;58.20;;;;;;4977159;28;20447;-66
2023/05/27 11:18:41;;;;;;;2.20;2.10;;;26.50;58.90;;;;;;4977059;28;20517;-66
2023/05/27 11:21:08;;;;;;;2.90;2.60;;;26.00;59.60;;;;;;4977911;28;20883;-65
2023/05/27 11:23:45;;;;;;;2.30;2.13;;;25.50;59.60;;;;;;4977198;28;20490;-65
2023/05/27 11:26:17;;;;;;;2.50;2.30;;;25.20;60.50;;;;;;4977800;28;20535;-67
2023/05/27 11:28:58;;;;;;;2.97;2.77;;;25.00;61.20;;;;;;4977856;28;20788;-65
2023/05/27 11:31:28;;;;;;;2.57;2.37;;;24.70;61.40;;;;;;4977039;28;20426;-65
2023/05/27 11:33:54;;;;;;;2.83;2.53;;;24.60;63.70;;;;;;4987076;28;20451;-66
2023/05/27 11:36:21;;;;;;;2.67;2.47;;;24.50;63.00;;;;;;4977902;28;20431;-66
2023/05/27 11:38:50;;;;;;;2.57;2.20;;;24.50;65.40;;;;;;4978583;28;20579;-66
2023/05/27 11:41:16;;;;;;;2.30;2.10;;;24.50;65.20;;;;;;4977806;28;20429;-66
2023/05/27 11:43:54;;;;;;;3.43;3.13;;;24.60;63.00;;;;;;4977151;28;20404;-65
2023/05/27 11:46:21;;;;;;;2.83;2.37;;;24.60;63.20;;;;;;4976774;28;20470;-64
2023/05/27 11:48:47;;;;;;;3.67;2.60;;;24.60;63.40;;;;;;4977486;28;20434;-64
2023/05/27 11:51:12;;;;;;;2.30;2.20;;;24.50;63.50;;;;;;4981699;28;20414;-64
2023/05/27 11:53:44;;;;;;;2.60;2.40;;;24.40;64.10;;;;;;4977780;28;20254;-66
2023/05/27 11:56:10;;;;;;;3.27;2.50;;;24.30;64.80;;;;;;4977629;28;20204;-65
2023/05/27 11:58:36;;;;;;;2.70;2.40;;;24.40;66.90;;;;;;4977663;28;20412;-65
2023/05/27 12:01:03;;;;;;;3.50;3.13;;;24.50;63.80;;;;;;4977507;28;20542;-65
2023/05/27 12:03:29;;;;;;;2.10;2.00;;;24.50;63.70;;;;;;4976789;28;20813;-65
2023/05/27 12:05:55;;;;;;;2.47;2.27;;;24.40;63.30;;;;;;4958975;28;20550;-65
2023/05/27 12:08:20;;;;;;;2.23;2.03;;;24.30;62.50;;;;;;4976803;28;20208;-65
2023/05/27 12:10:50;;;;;;;2.07;1.87;;;24.30;62.50;;;;;;4975680;28;20662;-66
2023/05/27 12:13:15;;;;;;;3.23;2.40;;;24.30;63.60;;;;;;4976581;28;20192;-66
2023/05/27 12:15:41;;;;;;;3.43;2.13;;;24.30;62.80;;;;;;4976673;28;20435;-66
2023/05/27 12:18:07;;;;;;;4.00;3.10;;;24.20;62.30;;;;;;4976262;28;20227;-66
2023/05/27 12:20:32;;;;;;;2.20;2.00;;;24.30;62.60;;;;;;4979705;28;20218;-66
2023/05/27 12:22:58;;;;;;;3.97;2.97;;;24.20;62.10;;;;;;4977598;28;20681;-66
2023/05/27 12:25:24;;;;;;;3.13;2.63;;;24.20;62.90;;;;;;4976552;28;20204;-66
2023/05/27 12:27:50;;;;;;;2.20;2.00;;;24.20;63.20;;;;;;4976913;28;20430;-66
2023/05/27 12:30:15;;;;;;;2.37;2.17;;;24.10;63.00;;;;;;4976342;28;20191;-66
2023/05/27 12:32:42;;;;;;;2.63;2.30;;;24.10;62.40;;;;;;4976486;28;20221;-64
2023/05/27 12:35:08;;;;;;;3.97;2.40;;;24.00;63.20;;;;;;4977561;28;20204;-66
2023/05/27 12:37:33;;;;;;;3.03;2.23;;;24.10;63.90;;;;;;4983800;28;20415;-65
2023/05/27 12:39:59;;;;;;;3.30;3.10;;;24.20;64.90;;;;;;4976707;28;20408;-65
2023/05/27 12:42:25;;;;;;;2.23;1.80;;;24.20;61.50;;;;;;4976433;28;20184;-66
2023/05/27 12:44:50;;;;;;;2.83;2.40;;;24.20;62.60;;;;;;4976094;28;20200;-66
2023/05/27 12:47:16;;;;;;;2.23;2.13;;;24.40;62.50;;;;;;4975946;28;20508;-66
2023/05/27 12:49:42;;;;;;;2.30;2.10;;;24.40;62.30;;;;;;4982704;28;20181;-66
2023/05/27 12:52:08;;;;;;;2.20;2.10;;;24.50;62.70;;;;;;4975162;28;20283;-64
2023/05/27 12:54:34;;;;;;;2.97;2.00;;;24.60;63.60;;;;;;4975893;28;20514;-63
2023/05/27 12:57:01;;;;;;;2.20;1.97;;;24.60;63.40;;;;;;4976447;28;20180;-63
2023/05/27 12:59:27;;;;;;;3.30;3.10;;;24.40;63.70;;;;;;4976150;28;20259;-66
2023/05/27 13:01:52;;;;;;;2.33;2.23;;;24.30;63.80;;;;;;4976095;28;20849;-65
2023/05/27 13:04:18;;;;;;;2.60;2.03;;;24.30;63.40;;;;;;4975435;28;20278;-64
2023/05/27 13:06:43;;;;;;;2.50;2.30;;;24.30;64.10;;;;;;4975929;28;20275;-64
2023/05/27 13:09:09;;;;;;;1.80;1.70;;;24.20;64.10;;;;;;4976171;28;20231;-65
2023/05/27 13:11:35;;;;;;;2.37;2.17;;;24.20;65.40;;;;;;4975868;28;20531;-64
2023/05/27 13:14:01;;;;;;;2.60;2.40;;;24.20;64.40;;;;;;4975701;28;20183;-64
2023/05/27 13:16:26;;;;;;;2.27;2.07;;;24.20;64.00;;;;;;4976097;28;20416;-64
2023/05/27 13:18:52;;;;;;;2.03;1.90;;;24.20;63.00;;;;;;4976156;28;20202;-63
2023/05/27 13:21:17;;;;;;;2.03;1.90;;;24.20;63.00;;;;;;4974766;28;20168;-64
2023/05/27 13:23:43;;;;;;;2.30;2.20;;;24.10;63.70;;;;;;4975586;28;20184;-64
2023/05/27 13:26:09;;;;;;;2.57;2.33;;;24.10;63.90;;;;;;4975765;28;20196;-65
2023/05/27 13:28:35;;;;;;;1.80;1.70;;;24.10;64.00;;;;;;4975600;28;20204;-64
2023/05/27 13:31:01;;;;;;;2.47;2.20;;;24.20;63.90;;;;;;4975588;28;20184;-64
2023/05/27 13:33:27;;;;;;;1.97;1.63;;;24.30;63.40;;;;;;4975192;28;20458;-64
2023/05/27 13:35:53;;;;;;;4.17;2.90;;;24.20;62.70;;;;;;4975017;28;20469;-65
2023/05/27 13:38:18;;;;;;;1.93;1.83;;;24.20;62.80;;;;;;4975361;28;20180;-66
2023/05/27 13:40:44;;;;;;;2.10;1.70;;;24.20;63.40;;;;;;4975346;28;20183;-65
2023/05/27 13:43:09;;;;;;;2.40;2.20;;;24.10;63.70;;;;;;4980604;28;20271;-64
2023/05/27 13:45:35;;;;;;;2.10;1.90;;;24.20;62.10;;;;;;4978683;28;20287;-66
2023/05/27 13:48:00;;;;;;;2.53;2.33;;;24.20;62.00;;;;;;4975198;28;20648;-66
2023/05/27 13:50:28;;;;;;;2.20;2.00;;;24.20;61.80;;;;;;4975104;28;20208;-66
2023/05/27 13:52:54;;;;;;;2.43;2.20;;;24.20;61.80;;;;;;4975171;28;20204;-66
2023/05/27 13:55:19;;;;;;;2.13;1.90;;;24.30;60.30;;;;;;4974511;28;20457;-66
2023/05/27 13:57:45;;;;;;;2.07;1.87;;;24.30;59.10;;;;;;4975835;28;20179;-66
2023/05/27 14:00:11;;;;;;;1.93;1.80;;;24.30;58.20;;;;;;4974879;28;20176;-65
2023/05/27 14:02:37;;;;;;;1.80;1.70;;;24.40;57.70;;;;;;4978281;28;20187;-65
2023/05/27 14:05:03;;;;;;;2.83;1.33;;;24.40;58.20;;;;;;4973712;28;20451;-67
2023/05/27 14:07:29;;;;;;;1.60;1.50;;;24.50;58.80;;;;;;4974759;28;20528;-64
2023/05/27 14:09:54;;;;;;;1.47;1.37;;;24.50;58.70;;;;;;4974705;28;20482;-65
2023/05/27 14:12:20;;;;;;;1.60;1.50;;;24.40;58.20;;;;;;4977614;28;20211;-64
2023/05/27 14:14:45;;;;;;;2.93;2.20;;;24.40;56.50;;;;;;4979469;28;20203;-65
2023/05/27 14:17:11;;;;;;;1.83;1.67;;;24.40;57.60;;;;;;4974711;28;20172;-64
2023/05/27 14:19:37;;;;;;;1.40;1.30;;;24.40;57.40;;;;;;4974563;28;20187;-64
2023/05/27 14:22:03;;;;;;;2.40;2.00;;;24.50;57.00;;;;;;4974416;28;20654;-64
2023/05/27 14:24:28;;;;;;;1.50;1.40;;;24.50;57.60;;;;;;4981192;28;20420;-64
2023/05/27 14:26:55;;;;;;;1.83;1.50;;;24.60;57.50;;;;;;4976244;28;20179;-65
2023/05/27 14:29:21;;;;;;;2.00;1.80;;;24.50;55.00;;;;;;4974009;28;20260;-65
2023/05/27 14:31:47;;;;;;;2.47;1.87;;;24.40;54.40;;;;;;4957262;28;20602;-66
2023/05/27 14:34:12;;;;;;;4.30;1.70;;;24.40;55.80;;;;;;4973863;28;20189;-65
2023/05/27 14:36:38;;;;;;;1.53;1.43;;;24.30;53.40;;;;;;4974926;28;20173;-65
2023/05/27 14:39:28;;;;;;;1.20;1.10;;;24.30;54.30;;;;;;4995956;28;20195;-66
2023/05/27 14:45:15;;;;;;;1.67;1.10;;;24.20;52.50;;;;;;4964010;28;20490;-66
2023/05/27 14:51:05;;;;;;;1.23;1.13;;;24.20;52.40;;;;;;4977205;28;20434;-66
2023/05/27 14:53:34;;;;;;;1.23;1.13;;;24.20;52.40;;;;;;4984062;28;20436;-65
2023/05/27 14:56:08;;;;;;;1.40;1.30;;;24.10;52.50;;;;;;4996992;28;20980;-66
2023/05/27 14:59:01;;;;;;;1.27;1.03;;;24.10;52.50;;;;;;4999104;28;20382;-66
2023/05/27 15:01:39;;;;;;;1.90;1.80;;;24.20;52.90;;;;;;4958744;28;20431;-66
2023/05/27 15:04:05;;;;;;;1.40;1.30;;;24.20;51.90;;;;;;4953232;28;20520;-65
2023/05/27 15:06:31;;;;;;;1.77;1.30;;;24.20;52.30;;;;;;4940114;29;20478;-66
2023/05/27 15:08:57;;;;;;;1.60;1.50;;;24.20;52.20;;;;;;4936107;29;20272;-66
2023/05/27 15:11:23;;;;;;;2.00;1.43;;;24.20;51.70;;;;;;4935984;29;20192;-64
2023/05/27 15:13:49;;;;;;;6.20;2.03;;;24.20;51.70;;;;;;4939704;28;20469;-66
2023/05/27 15:16:14;;;;;;;2.17;1.97;;;24.20;51.70;;;;;;4935927;29;20484;-66
2023/05/27 15:18:40;;;;;;;1.50;1.40;;;24.20;51.80;;;;;;4939073;29;20421;-65
2023/05/27 15:21:06;;;;;;;1.93;1.30;;;24.20;51.20;;;;;;4936443;29;20219;-66
2023/05/27 15:23:32;;;;;;;1.20;1.10;;;24.20;51.70;;;;;;4937494;29;20225;-65
2023/05/27 15:25:58;;;;;;;1.37;1.27;;;24.20;51.30;;;;;;4935502;29;20443;-65
2023/05/27 15:28:24;;;;;;;1.70;1.60;;;24.30;50.70;;;;;;4939667;28;20449;-66
2023/05/27 15:31:20;;;;;;;1.87;1.27;;;24.20;50.00;;;;;;4944743;28;20239;-65
2023/05/27 15:33:46;;;;;;;1.23;1.23;;;24.10;50.80;;;;;;4945419;28;20257;-66
2023/05/27 15:36:12;;;;;;;1.73;1.40;;;24.10;51.50;;;;;;4937376;29;20425;-64
2023/05/27 15:38:37;;;;;;;1.43;1.30;;;24.10;51.00;;;;;;4948100;28;20468;-65
2023/05/27 15:41:03;;;;;;;1.53;1.43;;;24.10;50.30;;;;;;4934175;29;20192;-65
2023/05/27 15:43:28;;;;;;;1.50;1.40;;;24.00;50.50;;;;;;4937033;29;20222;-66
2023/05/27 15:45:54;;;;;;;2.83;1.53;;;24.00;51.10;;;;;;4936520;29;20297;-65
2023/05/27 15:48:20;;;;;;;4.77;1.90;;;24.00;52.50;;;;;;4937105;29;20178;-65
2023/05/27 15:50:48;;;;;;;1.43;1.33;;;24.00;53.50;;;;;;4941225;28;20233;-66
2023/05/27 15:53:14;;;;;;;1.43;1.20;;;24.00;53.20;;;;;;4977679;28;20214;-66
2023/05/27 15:55:41;;;;;;;2.80;1.67;;;24.00;53.80;;;;;;4978033;28;20929;-66
2023/05/27 15:58:07;;;;;;;1.70;1.60;;;24.00;53.60;;;;;;4977590;28;20631;-66
2023/05/27 16:00:33;;;;;;;1.90;1.27;;;23.90;53.40;;;;;;4977407;28;20447;-66
2023/05/27 16:02:58;;;;;;;1.67;1.57;;;23.90;53.60;;;;;;4977166;28;20177;-66
2023/05/27 16:05:24;;;;;;;1.93;1.80;;;23.90;52.80;;;;;;4977292;28;20212;-65
2023/05/27 16:07:50;;;;;;;1.70;1.60;;;23.80;52.60;;;;;;4977452;28;20638;-65
2023/05/27 16:10:18;;;;;;;1.97;1.77;;;23.80;52.70;;;;;;4977437;28;20530;-65
2023/05/27 16:12:44;;;;;;;1.47;1.40;;;23.80;52.80;;;;;;4977235;28;20223;-65
2023/05/27 16:15:11;;;;;;;1.07;1.00;;;23.80;53.30;;;;;;4977006;28;20496;-65
2023/05/27 16:17:37;;;;;;;1.50;1.40;;;23.80;54.10;;;;;;4977179;28;20531;-65
2023/05/27 16:20:03;;;;;;;1.77;1.33;;;23.80;54.90;;;;;;4977041;28;20398;-65
2023/05/27 16:22:28;;;;;;;1.17;1.10;;;23.80;55.00;;;;;;4977147;28;20180;-65
2023/05/27 16:24:54;;;;;;;1.80;1.37;;;23.80;55.60;;;;;;4976959;28;20464;-65
2023/05/27 16:27:20;;;;;;;1.40;1.30;;;23.80;55.30;;;;;;4976952;28;20184;-65
2023/05/27 16:29:45;;;;;;;1.90;1.80;;;23.80;54.40;;;;;;4977129;28;20176;-65
2023/05/27 16:32:11;;;;;;;1.27;1.17;;;23.80;54.60;;;;;;4976789;28;20196;-65
2023/05/27 16:34:36;;;;;;;1.80;1.70;;;23.80;54.60;;;;;;4976722;28;20195;-65
2023/05/27 16:37:02;;;;;;;2.30;1.93;;;23.70;55.10;;;;;;4977077;28;20539;-64
2023/05/27 16:39:28;;;;;;;2.33;2.13;;;23.70;55.60;;;;;;4976995;28;20207;-66
2023/05/27 16:41:56;;;;;;;1.90;1.70;;;23.70;56.10;;;;;;4977106;28;20187;-65
2023/05/27 16:44:21;;;;;;;3.80;1.87;;;23.70;56.70;;;;;;4976365;28;20196;-65
2023/05/27 16:46:47;;;;;;;1.53;1.43;;;23.70;57.30;;;;;;4976907;28;20490;-66
2023/05/27 16:49:13;;;;;;;1.60;1.50;;;23.70;56.50;;;;;;4976949;28;20254;-64
2023/05/27 16:51:38;;;;;;;4.00;2.00;;;23.70;56.70;;;;;;4976759;28;20639;-66
2023/05/27 16:54:04;;;;;;;2.00;1.90;;;23.60;55.90;;;;;;4976481;28;20222;-64
2023/05/27 16:56:30;;;;;;;1.47;1.30;;;23.60;56.40;;;;;;4977964;28;20170;-64
2023/05/27 16:58:56;;;;;;;2.07;1.60;;;23.60;56.50;;;;;;4977444;28;20259;-65
2023/05/27 17:01:22;;;;;;;3.43;1.83;;;23.60;56.20;;;;;;4977072;28;20255;-66